createdAt,value
2018-11-29T00:00:32.198Z,20.47
2018-11-29T00:03:00.935Z,18.93
2018-11-29T00:05:29.557Z,18.33
2018-11-29T00:07:58.353Z,19.30
2018-11-29T00:10:26.937Z,20.17
2018-11-29T00:12:55.607Z,19.93
2018-11-29T00:15:24.437Z,22.63
2018-11-29T00:17:55.877Z,19.80
2018-11-29T00:26:47.879Z,19.97
2018-11-29T00:29:16.589Z,19.47
2018-11-29T00:31:46.891Z,18.87
2018-11-29T00:34:15.929Z,19.30
2018-11-29T00:36:48.761Z,20.23
2018-11-29T00:39:17.951Z,20.13
2018-11-29T00:41:46.490Z,19.60
2018-11-29T00:44:15.131Z,20.00
2018-11-29T00:46:43.730Z,20.20
2018-11-29T00:49:12.250Z,20.33
2018-11-29T00:51:41.271Z,20.73
2018-11-29T00:54:09.864Z,20.90
2018-11-29T00:56:38.564Z,20.87
2018-11-29T00:59:07.170Z,20.57
2018-11-29T01:01:41.111Z,20.53
2018-11-29T01:04:13.428Z,20.00
2018-11-29T01:06:43.451Z,21.73
2018-11-29T01:09:13.428Z,19.33
2018-11-29T01:11:43.055Z,20.03
2018-11-29T01:14:12.208Z,19.30
2018-11-29T01:16:46.777Z,19.63
2018-11-29T01:19:16.114Z,21.60
2018-11-29T01:21:44.807Z,19.27
2018-11-29T01:24:13.789Z,19.90
2018-11-29T01:26:44.411Z,19.00
2018-11-29T01:29:13.044Z,20.27
2018-11-29T01:31:41.659Z,19.70
2018-11-29T01:34:10.710Z,20.97
2018-11-29T01:36:39.276Z,18.10
2018-11-29T01:39:11.688Z,18.57
2018-11-29T01:41:40.857Z,18.13
2018-11-29T01:44:11.953Z,20.50
2018-11-29T01:46:42.400Z,19.70
2018-11-29T01:49:11.238Z,18.97
2018-11-29T01:51:39.979Z,18.07
2018-11-29T01:54:10.084Z,19.20
2018-11-29T01:56:42.643Z,18.43
2018-11-29T01:59:12.186Z,19.60
2018-11-29T02:01:43.525Z,19.63
2018-11-29T02:04:14.455Z,18.03
2018-11-29T02:06:44.759Z,18.07
2018-11-29T02:09:13.840Z,18.73
2018-11-29T02:11:43.245Z,18.13
2018-11-29T02:14:18.866Z,19.00
2018-11-29T02:16:47.543Z,18.10
2018-11-29T02:19:16.368Z,17.70
2018-11-29T02:21:49.624Z,19.57
2018-11-29T02:24:18.707Z,17.50
2018-11-29T02:26:48.326Z,18.60
2018-11-29T02:29:16.972Z,17.37
2018-11-29T02:31:46.893Z,18.83
2018-11-29T02:34:15.445Z,18.87
2018-11-29T02:36:44.161Z,17.17
2018-11-29T02:39:13.655Z,18.40
2018-11-29T02:41:42.230Z,17.13
2018-11-29T02:44:10.786Z,17.43
2018-11-29T02:46:39.355Z,18.37
2018-11-29T02:49:07.938Z,18.27
2018-11-29T02:51:36.508Z,17.90
2018-11-29T02:54:05.144Z,17.50
2018-11-29T02:56:33.729Z,16.60
2018-11-29T02:59:02.320Z,18.43
2018-11-29T03:01:30.871Z,17.87
2018-11-29T03:03:59.450Z,19.33
2018-11-29T03:06:27.965Z,17.17
2018-11-29T03:08:56.516Z,18.47
2018-11-29T03:11:25.034Z,18.53
2018-11-29T03:13:53.695Z,18.30
2018-11-29T03:16:22.203Z,19.30
2018-11-29T03:18:50.724Z,17.77
2018-11-29T03:21:19.284Z,18.47
2018-11-29T03:23:47.841Z,18.57
2018-11-29T03:26:16.373Z,18.83
2018-11-29T03:28:44.998Z,19.00
2018-11-29T03:31:13.516Z,19.57
2018-11-29T03:33:42.044Z,20.10
2018-11-29T03:36:10.552Z,18.60
2018-11-29T03:38:39.112Z,18.67
2018-11-29T03:41:07.618Z,18.00
2018-11-29T03:43:36.176Z,18.80
2018-11-29T03:46:04.845Z,17.30
2018-11-29T03:48:33.422Z,18.23
2018-11-29T03:51:01.952Z,18.97
2018-11-29T03:53:30.488Z,18.77
2018-11-29T03:55:59.020Z,19.57
2018-11-29T03:58:27.527Z,18.80
2018-11-29T04:00:56.038Z,18.33
2018-11-29T04:03:24.553Z,19.40
2018-11-29T04:05:53.025Z,19.57
2018-11-29T04:08:21.657Z,19.80
2018-11-29T04:10:50.140Z,18.33
2018-11-29T04:13:19.615Z,17.90
2018-11-29T04:15:48.114Z,18.57
2018-11-29T04:18:16.605Z,20.40
2018-11-29T04:20:45.101Z,19.53
2018-11-29T04:23:13.576Z,20.23
2018-11-29T04:25:42.055Z,20.07
2018-11-29T04:28:10.703Z,20.90
2018-11-29T04:30:39.280Z,20.43
2018-11-29T04:33:07.964Z,21.30
2018-11-29T04:35:36.511Z,21.13
2018-11-29T04:38:05.018Z,19.60
2018-11-29T04:40:33.537Z,20.90
2018-11-29T04:43:02.066Z,22.13
2018-11-29T04:45:41.894Z,20.73
2018-11-29T04:48:10.447Z,22.23
2018-11-29T04:50:38.960Z,22.57
2018-11-29T04:53:07.453Z,20.43
2018-11-29T04:55:36.231Z,21.47
2018-11-29T04:58:05.220Z,21.37
2018-11-29T05:00:33.952Z,21.83
2018-11-29T05:03:02.469Z,21.23
2018-11-29T05:05:31.005Z,20.50
2018-11-29T05:07:59.483Z,21.27
2018-11-29T05:10:28.022Z,22.00
2018-11-29T05:12:56.528Z,21.43
2018-11-29T05:15:25.061Z,19.33
2018-11-29T05:17:53.557Z,21.57
2018-11-29T05:20:22.057Z,21.87
2018-11-29T05:22:50.564Z,22.97
2018-11-29T05:25:19.114Z,21.77
2018-11-29T05:27:47.605Z,21.77
2018-11-29T05:30:16.116Z,21.83
2018-11-29T05:32:44.630Z,21.90
2018-11-29T05:35:13.349Z,20.70
2018-11-29T05:37:42.253Z,22.10
2018-11-29T05:40:12.002Z,22.27
2018-11-29T05:42:40.509Z,23.00
2018-11-29T05:45:10.151Z,20.13
2018-11-29T05:47:38.625Z,21.77
2018-11-29T05:50:09.287Z,20.63
2018-11-29T05:52:37.858Z,20.87
2018-11-29T05:55:13.096Z,19.83
2018-11-29T05:57:41.662Z,19.30
2018-11-29T06:00:12.798Z,21.77
2018-11-29T06:02:41.320Z,20.90
2018-11-29T06:05:10.719Z,18.97
2018-11-29T06:07:39.205Z,18.17
2018-11-29T06:10:07.742Z,19.97
2018-11-29T06:12:36.283Z,20.00
2018-11-29T06:15:05.804Z,22.30
2018-11-29T06:17:34.350Z,19.43
2018-11-29T06:20:02.915Z,21.90
2018-11-29T06:22:31.440Z,20.10
2018-11-29T06:24:59.931Z,20.53
2018-11-29T06:27:28.543Z,21.57
2018-11-29T06:29:57.036Z,21.63
2018-11-29T06:32:25.587Z,23.63
2018-11-29T06:34:54.079Z,22.30
2018-11-29T06:37:22.639Z,22.43
2018-11-29T06:39:51.181Z,22.57
2018-11-29T06:42:19.690Z,21.57
2018-11-29T06:44:48.281Z,22.30
2018-11-29T06:47:16.784Z,23.63
2018-11-29T06:49:45.244Z,21.87
2018-11-29T06:52:13.796Z,22.60
2018-11-29T06:54:42.256Z,21.03
2018-11-29T06:57:10.747Z,22.03
2018-11-29T06:59:39.224Z,19.07
2018-11-29T07:02:07.791Z,24.17
2018-11-29T07:04:36.305Z,23.47
2018-11-29T07:07:05.006Z,22.90
2018-11-29T07:09:33.511Z,23.90
2018-11-29T07:12:02.006Z,22.13
2018-11-29T07:14:30.560Z,23.80
2018-11-29T07:16:59.077Z,25.13
2018-11-29T07:19:28.164Z,24.23
2018-11-29T07:21:56.360Z,23.17
2018-11-29T07:24:25.387Z,23.60
2018-11-29T07:26:53.895Z,24.87
2018-11-29T07:29:22.425Z,22.37
2018-11-29T07:31:50.972Z,23.23
2018-11-29T07:34:19.449Z,22.87
2018-11-29T07:36:47.971Z,24.07
2018-11-29T07:39:16.442Z,23.37
2018-11-29T07:41:44.945Z,21.93
2018-11-29T07:44:13.441Z,22.43
2018-11-29T07:46:41.949Z,22.57
2018-11-29T07:49:10.458Z,22.80
2018-11-29T07:51:38.977Z,22.03
2018-11-29T07:54:07.517Z,22.07
2018-11-29T07:56:36.022Z,21.63
2018-11-29T07:59:04.522Z,22.00
2018-11-29T08:01:33.069Z,22.03
2018-11-29T08:04:01.589Z,22.07
2018-11-29T08:06:30.111Z,20.37
2018-11-29T08:08:58.689Z,21.57
2018-11-29T08:11:27.287Z,21.43
2018-11-29T08:13:55.919Z,19.67
2018-11-29T08:16:24.452Z,23.37
2018-11-29T08:18:53.014Z,22.07
2018-11-29T08:21:21.503Z,22.17
2018-11-29T08:23:50.027Z,22.50
2018-11-29T08:26:18.512Z,21.73
2018-11-29T08:28:47.026Z,22.33
2018-11-29T08:31:16.030Z,22.57
2018-11-29T08:33:44.680Z,20.70
2018-11-29T08:36:13.253Z,20.57
2018-11-29T08:38:41.789Z,21.10
2018-11-29T08:41:10.288Z,24.77
2018-11-29T08:43:38.797Z,22.03
2018-11-29T08:46:07.322Z,22.73
2018-11-29T08:48:35.944Z,21.90
2018-11-29T08:51:04.399Z,21.57
2018-11-29T08:53:32.903Z,22.17
2018-11-29T08:56:01.414Z,20.97
2018-11-29T08:58:30.055Z,21.00
2018-11-29T09:00:58.578Z,20.47
2018-11-29T09:03:27.098Z,21.30
2018-11-29T09:05:55.615Z,21.93
2018-11-29T09:08:24.123Z,21.83
2018-11-29T09:10:52.636Z,21.33
2018-11-29T09:13:21.160Z,20.93
2018-11-29T09:15:49.666Z,21.47
2018-11-29T09:18:18.173Z,19.70
2018-11-29T09:20:46.675Z,21.93
2018-11-29T09:23:15.192Z,20.27
2018-11-29T09:25:44.074Z,20.23
2018-11-29T09:28:12.752Z,20.47
2018-11-29T09:30:41.277Z,20.70
2018-11-29T09:33:10.228Z,19.60
2018-11-29T09:35:38.781Z,22.60
2018-11-29T09:38:07.287Z,20.50
2018-11-29T09:40:35.819Z,20.67
2018-11-29T09:43:04.838Z,19.90
2018-11-29T09:45:33.452Z,21.83
2018-11-29T09:48:02.131Z,20.47
2018-11-29T09:50:30.825Z,19.90
2018-11-29T09:52:59.398Z,18.63
2018-11-29T09:55:27.944Z,20.10
2018-11-29T09:57:56.548Z,20.70
2018-11-29T10:00:28.196Z,20.10
2018-11-29T10:03:06.593Z,21.87
2018-11-29T10:05:35.551Z,19.73
2018-11-29T10:08:11.546Z,18.80
2018-11-29T10:10:33.390Z,20.83
2018-11-29T10:13:01.922Z,20.47
2018-11-29T10:15:30.408Z,18.93
2018-11-29T10:17:58.918Z,19.43
2018-11-29T10:20:27.386Z,20.40
2018-11-29T10:22:55.894Z,18.87
2018-11-29T10:25:24.394Z,20.17
2018-11-29T10:27:54.467Z,20.13
2018-11-29T10:30:24.853Z,18.90
2018-11-29T10:32:53.364Z,19.80
2018-11-29T10:35:21.880Z,19.37
2018-11-29T10:37:52.663Z,19.17
2018-11-29T10:40:21.217Z,19.13
2018-11-29T10:42:49.718Z,18.87
2018-11-29T10:45:19.366Z,19.33
2018-11-29T10:47:52.275Z,20.37
2018-11-29T10:50:17.935Z,22.97
2018-11-29T10:52:46.438Z,20.03
2018-11-29T10:55:16.085Z,19.87
2018-11-29T10:57:44.602Z,18.97
2018-11-29T11:00:29.131Z,18.47
2018-11-29T11:03:07.629Z,18.43
2018-11-29T11:05:37.366Z,19.60
2018-11-29T11:08:08.800Z,16.90
2018-11-29T11:10:37.230Z,18.00
2018-11-29T11:13:06.192Z,18.37
2018-11-29T11:15:34.773Z,18.90
2018-11-29T11:18:03.416Z,17.77
2018-11-29T11:20:31.944Z,19.40
2018-11-29T11:23:03.607Z,18.63
2018-11-29T11:25:33.314Z,18.60
2018-11-29T11:28:02.455Z,19.80
2018-11-29T11:30:31.166Z,19.60
2018-11-29T11:33:00.335Z,19.97
2018-11-29T11:35:30.730Z,18.67
2018-11-29T11:37:59.298Z,19.00
2018-11-29T11:40:28.765Z,18.43
2018-11-29T11:42:57.279Z,19.30
2018-11-29T11:45:25.965Z,17.93
2018-11-29T11:47:54.535Z,18.27
2018-11-29T11:50:24.392Z,17.33
2018-11-29T11:52:54.013Z,18.20
2018-11-29T11:55:29.761Z,17.93
2018-11-29T11:57:51.923Z,17.37
2018-11-29T12:00:22.472Z,17.93
2018-11-29T12:02:54.670Z,17.37
2018-11-29T12:05:23.169Z,17.63
2018-11-29T12:07:51.866Z,16.77
2018-11-29T12:10:20.487Z,17.07
2018-11-29T12:12:49.101Z,18.63
2018-11-29T12:15:19.525Z,16.13
2018-11-29T12:17:48.513Z,17.23
2018-11-29T12:20:18.535Z,17.63
2018-11-29T12:22:47.757Z,16.50
2018-11-29T12:25:19.793Z,18.30
2018-11-29T12:27:48.809Z,16.97
2018-11-29T12:30:27.863Z,16.63
2018-11-29T12:33:04.935Z,16.63
2018-11-29T12:35:34.820Z,17.07
2018-11-29T12:38:03.480Z,16.63
2018-11-29T12:40:33.393Z,16.80
2018-11-29T12:43:02.237Z,15.37
2018-11-29T12:45:31.641Z,16.13
2018-11-29T12:48:00.273Z,15.93
2018-11-29T12:50:30.268Z,17.03
2018-11-29T12:52:59.207Z,13.20
2018-11-29T12:55:27.756Z,17.07
2018-11-29T12:58:05.148Z,17.90
2018-11-29T13:00:26.605Z,17.27
2018-11-29T13:03:00.392Z,15.83
2018-11-29T13:05:30.065Z,17.07
2018-11-29T13:07:59.041Z,16.97
2018-11-29T13:10:28.187Z,18.00
2018-11-29T13:12:56.751Z,16.83
2018-11-29T13:15:29.392Z,17.10
2018-11-29T13:17:58.884Z,15.90
2018-11-29T13:20:32.365Z,16.47
2018-11-29T13:22:55.934Z,16.87
2018-11-29T13:25:25.626Z,17.13
2018-11-29T13:27:54.743Z,17.23
2018-11-29T13:30:23.581Z,17.27
2018-11-29T13:32:54.511Z,16.40
2018-11-29T13:35:25.243Z,17.47
2018-11-29T13:37:55.378Z,16.27
2018-11-29T13:40:25.372Z,16.60
2018-11-29T13:42:53.948Z,15.70
2018-11-29T13:45:22.804Z,16.57
2018-11-29T13:47:51.302Z,16.77
2018-11-29T13:50:19.835Z,16.43
2018-11-29T13:52:48.396Z,16.03
2018-11-29T13:55:17.402Z,16.60
2018-11-29T13:57:50.661Z,14.77
2018-11-29T14:00:21.287Z,16.03
2018-11-29T14:02:51.978Z,16.17
2018-11-29T14:05:21.532Z,16.40
2018-11-29T14:07:50.402Z,15.63
2018-11-29T14:10:20.179Z,15.43
2018-11-29T14:12:53.770Z,15.50
2018-11-29T14:15:30.824Z,15.57
2018-11-29T14:18:00.222Z,14.83
2018-11-29T14:20:28.999Z,14.87
2018-11-29T14:22:58.498Z,14.53
2018-11-29T14:25:33.149Z,13.47
2018-11-29T14:28:02.133Z,13.87
2018-11-29T14:30:35.336Z,13.57
2018-11-29T14:33:04.004Z,13.47
2018-11-29T14:35:34.014Z,13.87
2018-11-29T14:38:02.561Z,13.60
2018-11-29T14:40:33.884Z,13.73
2018-11-29T14:43:02.461Z,14.10
2018-11-29T14:45:31.100Z,13.70
2018-11-29T14:48:00.751Z,14.20
2018-11-29T14:50:38.363Z,14.00
2018-11-29T14:53:08.018Z,12.77
2018-11-29T14:55:38.123Z,13.30
2018-11-29T14:58:08.506Z,12.63
2018-11-29T15:00:37.763Z,13.73
2018-11-29T15:03:09.975Z,12.57
2018-11-29T15:05:38.461Z,12.87
2018-11-29T15:08:08.617Z,12.37
2018-11-29T15:10:38.135Z,13.37
2018-11-29T15:13:08.105Z,12.60
2018-11-29T15:15:37.009Z,13.43
2018-11-29T15:18:06.035Z,12.83
2018-11-29T15:20:36.997Z,12.57
2018-11-29T15:23:06.571Z,12.70
2018-11-29T15:25:35.118Z,12.37
2018-11-29T15:28:03.730Z,13.27
2018-11-29T15:30:32.388Z,12.80
2018-11-29T15:33:01.024Z,12.07
2018-11-29T15:35:29.580Z,12.57
2018-11-29T15:37:58.132Z,13.27
2018-11-29T15:40:26.720Z,12.53
2018-11-29T15:42:56.164Z,12.23
2018-11-29T15:45:26.116Z,13.53
2018-11-29T15:47:54.709Z,13.23
2018-11-29T15:50:23.401Z,13.13
2018-11-29T15:52:52.007Z,12.13
2018-11-29T15:55:21.487Z,12.10
2018-11-29T15:57:51.018Z,12.63
2018-11-29T16:00:21.643Z,12.13
2018-11-29T16:02:50.686Z,12.90
2018-11-29T16:05:19.240Z,13.07
2018-11-29T16:07:47.913Z,12.30
2018-11-29T16:10:18.487Z,12.17
2018-11-29T16:12:47.065Z,12.57
2018-11-29T16:15:16.513Z,12.50
2018-11-29T16:17:45.600Z,12.47
2018-11-29T16:20:18.414Z,12.33
2018-11-29T16:22:47.023Z,13.00
2018-11-29T16:25:15.570Z,13.47
2018-11-29T16:27:44.131Z,11.60
2018-11-29T16:31:22.446Z,11.80
2018-11-29T16:33:50.991Z,11.00
2018-11-29T16:36:19.533Z,12.07
2018-11-29T16:38:48.157Z,11.20
2018-11-29T16:41:16.824Z,11.93
2018-11-29T16:43:45.552Z,11.20
2018-11-29T16:46:14.468Z,12.23
2018-11-29T16:48:43.098Z,12.80
2018-11-29T16:51:11.862Z,12.00
2018-11-29T16:53:40.585Z,12.37
2018-11-29T16:56:09.247Z,11.97
2018-11-29T16:58:37.933Z,11.70
2018-11-29T17:01:09.465Z,12.97
2018-11-29T17:03:38.136Z,11.93
2018-11-29T17:06:06.744Z,12.23
2018-11-29T17:08:35.426Z,12.07
2018-11-29T17:11:03.992Z,11.27
2018-11-29T17:13:32.923Z,11.83
2018-11-29T17:16:01.463Z,10.83
2018-11-29T17:18:30.062Z,10.90
2018-11-29T17:20:58.808Z,11.23
2018-11-29T17:23:27.656Z,12.60
2018-11-29T17:25:56.159Z,11.30
2018-11-29T17:28:24.973Z,11.40
2018-11-29T17:30:54.096Z,11.27
2018-11-29T17:33:23.145Z,11.20
2018-11-29T17:35:53.065Z,10.70
2018-11-29T17:38:22.293Z,11.87
2018-11-29T17:40:51.586Z,11.33
2018-11-29T17:43:20.899Z,9.87
2018-11-29T17:45:50.204Z,10.87
2018-11-29T17:48:18.823Z,10.67
2018-11-29T17:50:47.715Z,11.30
2018-11-29T17:53:16.260Z,10.97
2018-11-29T17:55:44.980Z,11.23
2018-11-29T17:58:15.289Z,11.67
2018-11-29T18:00:45.475Z,11.00
2018-11-29T18:03:15.937Z,12.90
2018-11-29T18:05:45.146Z,11.93
2018-11-29T18:08:13.730Z,10.73
2018-11-29T18:10:42.690Z,11.87
2018-11-29T18:13:21.006Z,11.40
2018-11-29T18:15:49.689Z,12.10
2018-11-29T18:18:18.252Z,12.30
2018-11-29T18:20:46.806Z,11.70
2018-11-29T18:23:15.320Z,11.20
2018-11-29T18:25:43.868Z,11.13
2018-11-29T18:28:12.635Z,12.13
2018-11-29T18:30:41.158Z,11.00
2018-11-29T18:33:09.749Z,11.33
2018-11-29T18:35:38.289Z,12.50
2018-11-29T18:38:07.341Z,10.73
2018-11-29T18:40:40.724Z,10.63
2018-11-29T18:43:10.187Z,10.93
2018-11-29T18:45:39.233Z,11.20
2018-11-29T18:48:08.347Z,10.30
2018-11-29T18:50:36.909Z,10.93
2018-11-29T18:53:05.736Z,10.73
2018-11-29T18:55:34.817Z,10.70
2018-11-29T18:58:03.504Z,10.30
2018-11-29T19:00:34.767Z,10.37
2018-11-29T19:03:08.615Z,9.83
2018-11-29T19:05:37.288Z,9.67
2018-11-29T19:08:08.632Z,10.43
2018-11-29T19:10:37.346Z,9.83
2018-11-29T19:13:09.167Z,9.50
2018-11-29T19:15:38.111Z,8.53
2018-11-29T19:18:10.678Z,8.83
2018-11-29T19:20:38.032Z,8.43
2018-11-29T19:23:06.818Z,8.10
2018-11-29T19:25:35.475Z,7.70
2018-11-29T19:28:04.118Z,7.83
2018-11-29T19:30:34.082Z,9.23
2018-11-29T19:33:19.830Z,8.27
2018-11-29T19:35:49.571Z,8.73
2018-11-29T19:38:18.194Z,8.37
2018-11-29T19:40:47.855Z,7.63
2018-11-29T19:43:16.750Z,8.37
2018-11-29T19:45:45.623Z,9.13
2018-11-29T19:48:14.361Z,8.20
2018-11-29T19:50:43.016Z,8.73
2018-11-29T19:53:19.884Z,8.17
2018-11-29T19:55:50.176Z,8.90
2018-11-29T19:58:18.834Z,8.33
2018-11-29T20:00:47.620Z,8.13
2018-11-29T20:03:16.768Z,7.37
2018-11-29T20:05:45.584Z,7.73
2018-11-29T20:08:14.217Z,7.73
2018-11-29T20:10:42.839Z,7.97
2018-11-29T20:13:13.291Z,8.00
2018-11-29T20:15:48.525Z,7.13
2018-11-29T20:18:17.181Z,7.60
2018-11-29T20:20:50.856Z,6.47
2018-11-29T20:23:19.381Z,6.80
2018-11-29T20:25:48.303Z,7.03
2018-11-29T20:28:17.005Z,6.60
2018-11-29T20:30:45.849Z,6.37
2018-11-29T20:33:14.704Z,7.83
2018-11-29T20:35:43.938Z,6.87
2018-11-29T20:38:13.103Z,6.40
2018-11-29T20:40:43.676Z,6.50
2018-11-29T20:43:13.626Z,6.93
2018-11-29T20:45:58.104Z,6.37
2018-11-29T20:48:29.676Z,6.50
2018-11-29T20:50:59.392Z,6.00
2018-11-29T20:53:33.932Z,6.30
2018-11-29T20:56:04.492Z,6.20
2018-11-29T20:58:33.289Z,6.33
2018-11-29T21:01:02.794Z,6.10
2018-11-29T21:03:31.502Z,6.30
2018-11-29T21:06:00.204Z,6.50
2018-11-29T21:08:28.909Z,5.07
2018-11-29T21:10:59.022Z,6.03
2018-11-29T21:13:27.771Z,6.13
2018-11-29T21:15:57.722Z,6.23
2018-11-29T21:18:26.288Z,5.47
2018-11-29T21:20:55.992Z,5.67
2018-11-29T21:23:25.233Z,6.07
2018-11-29T21:25:55.451Z,5.53
2018-11-29T21:28:24.594Z,5.80
2018-11-29T21:30:53.863Z,5.87
2018-11-29T21:33:23.524Z,5.90
2018-11-29T21:35:52.483Z,5.47
2018-11-29T21:38:21.833Z,6.00
2018-11-29T21:40:55.610Z,5.53
2018-11-29T21:43:25.001Z,5.57
2018-11-29T21:45:54.336Z,6.80
2018-11-29T21:48:22.862Z,6.00
2018-11-29T21:50:51.480Z,6.13
2018-11-29T21:53:20.660Z,6.00
2018-11-29T21:55:50.479Z,6.23
2018-11-29T21:58:20.503Z,5.57
2018-11-29T22:00:49.794Z,6.40
2018-11-29T22:03:19.237Z,5.93
2018-11-29T22:05:47.866Z,5.60
2018-11-29T22:08:18.304Z,5.80
2018-11-29T22:10:47.093Z,5.60
2018-11-29T22:13:15.598Z,5.60
2018-11-29T22:15:44.163Z,5.43
2018-11-29T22:18:20.890Z,5.80
2018-11-29T22:20:52.928Z,6.43
2018-11-29T22:23:21.538Z,5.60
2018-11-29T22:25:50.165Z,6.10
2018-11-29T22:28:21.526Z,5.40
2018-11-29T22:30:50.058Z,5.97
2018-11-29T22:33:19.787Z,6.20
2018-11-29T22:35:48.313Z,5.33
2018-11-29T22:38:17.836Z,5.67
2018-11-29T22:40:46.488Z,5.50
2018-11-29T22:43:15.002Z,5.63
2018-11-29T22:45:43.489Z,5.20
2018-11-29T22:48:13.952Z,5.23
2018-11-29T22:50:43.065Z,5.73
2018-11-29T22:53:11.624Z,5.80
2018-11-29T22:55:40.263Z,5.57
2018-11-29T22:58:08.785Z,5.50
2018-11-29T23:00:39.261Z,5.73
2018-11-29T23:03:07.766Z,5.73
2018-11-29T23:05:36.367Z,5.13
2018-11-29T23:08:04.949Z,6.03
2018-11-29T23:10:33.475Z,5.70
2018-11-29T23:13:01.942Z,5.50
2018-11-29T23:15:30.433Z,5.43
2018-11-29T23:17:58.934Z,5.60
2018-11-29T23:20:27.451Z,5.70
2018-11-29T23:22:56.037Z,5.23
2018-11-29T23:25:24.543Z,5.30
2018-11-29T23:27:53.118Z,5.93
2018-11-29T23:30:25.475Z,5.57
2018-11-29T23:32:54.062Z,5.23
2018-11-29T23:35:22.692Z,5.73
2018-11-29T23:37:51.498Z,5.57
2018-11-29T23:40:21.595Z,5.27
2018-11-29T23:42:50.719Z,5.47
2018-11-29T23:45:23.836Z,5.67
2018-11-29T23:47:52.425Z,5.10
2018-11-29T23:50:21.002Z,5.87
2018-11-29T23:52:49.532Z,5.90
2018-11-29T23:55:19.345Z,5.37
2018-11-29T23:57:48.023Z,6.00
